Time;durP1;ratioP1;P1;durP2;ratioP2;P2;SDS_P1;SDS_P2;PMS_P1;PMS_P2;Temp;Humidity;BMP_temperature;BMP_pressure;BME280_temperature;BME280_humidity;BME280_pressure;Samples;Min_cycle;Max_cycle;Signal;HPM_P1;HPM_P2
2021/06/06 03:33:10;;;;;;;27.02;11.70;;;;;;;10.39;75.01;99259.41;2186157;80;20966;-67
2021/06/06 03:36:13;;;;;;;22.42;10.08;;;;;;;10.49;74.72;99256.67;2186464;81;20982;-67
2021/06/06 03:39:14;;;;;;;28.38;14.00;;;;;;;10.62;74.71;99248.98;2159467;81;21053;-69
2021/06/06 03:42:15;;;;;;;31.75;15.13;;;;;;;10.83;74.90;99245.66;2186775;81;20994;-67
2021/06/06 03:45:16;;;;;;;29.63;13.68;;;;;;;11.15;74.59;99243.45;2186530;81;21088;-72
2021/06/06 03:48:17;;;;;;;32.85;15.10;;;;;;;11.32;74.27;99239.42;2186528;81;20998;-68
2021/06/06 03:51:18;;;;;;;34.43;16.93;;;;;;;11.48;74.32;99244.63;2163280;80;21348;-72
2021/06/06 03:54:19;;;;;;;28.67;14.85;;;;;;;11.77;74.46;99238.97;2144594;83;21015;-72
2021/06/06 03:57:19;;;;;;;24.43;13.60;;;;;;;12.11;74.14;99238.30;2144317;83;21071;-70
2021/06/06 04:00:20;;;;;;;25.68;14.00;;;;;;;12.30;74.11;99240.64;2144030;83;21474;-61
2021/06/06 04:03:21;;;;;;;25.23;14.30;;;;;;;12.45;74.01;99238.83;2182933;81;21499;-60
2021/06/06 04:06:23;;;;;;;24.63;13.48;;;;;;;12.69;74.19;99234.30;2188713;81;21028;-61
2021/06/06 04:09:24;;;;;;;26.57;13.98;;;;;;;12.97;74.02;99237.34;2188609;81;21016;-62
2021/06/06 04:12:24;;;;;;;26.30;14.33;;;;;;;13.09;73.96;99238.81;2188371;81;21502;-60
2021/06/06 04:15:25;;;;;;;27.07;15.15;;;;;;;13.25;74.20;99242.61;2188564;81;20969;-60
2021/06/06 04:18:25;;;;;;;25.55;15.68;;;;;;;13.49;74.33;99243.66;2188266;81;20981;-60
2021/06/06 04:21:26;;;;;;;28.20;15.80;;;;;;;13.75;73.91;99240.20;2188336;81;20980;-61
2021/06/06 04:24:26;;;;;;;29.05;16.37;;;;;;;13.94;73.69;99243.77;2188927;81;20969;-61
2021/06/06 04:27:27;;;;;;;25.95;14.83;;;;;;;14.00;73.74;99243.34;2188860;81;21051;-60
2021/06/06 04:30:29;;;;;;;26.97;15.03;;;;;;;14.12;73.85;99246.92;2188371;81;21044;-61
2021/06/06 04:33:29;;;;;;;27.02;14.95;;;;;;;14.33;74.20;99246.75;2188731;81;21063;-64
2021/06/06 04:36:30;;;;;;;25.80;14.80;;;;;;;14.60;74.27;99240.98;2188727;81;20937;-64
2021/06/06 04:39:30;;;;;;;26.85;15.50;;;;;;;14.80;73.59;99239.09;2188511;81;21051;-65
2021/06/06 04:42:30;;;;;;;27.45;16.20;;;;;;;15.20;73.31;99237.98;2188729;81;21475;-73
2021/06/06 04:45:31;;;;;;;29.63;17.17;;;;;;;15.53;72.87;99237.29;2188185;81;21048;-73
2021/06/06 04:48:32;;;;;;;29.60;15.70;;;;;;;15.95;72.41;99239.47;2188548;81;20968;-73
2021/06/06 04:51:32;;;;;;;27.27;16.00;;;;;;;16.27;72.10;99236.95;2188838;81;21007;-70
2021/06/06 04:54:33;;;;;;;28.35;16.75;;;;;;;16.54;71.33;99237.57;2188844;81;20996;-70
2021/06/06 04:57:33;;;;;;;27.73;15.95;;;;;;;16.80;71.03;99242.94;2188858;81;21001;-71
2021/06/06 05:00:34;;;;;;;27.15;15.10;;;;;;;17.07;70.83;99246.18;2188559;81;20953;-69
2021/06/06 05:03:34;;;;;;;28.83;15.85;;;;;;;17.22;70.38;99251.53;2188426;81;20965;-75
2021/06/06 05:06:34;;;;;;;27.70;15.50;;;;;;;17.37;69.87;99243.28;2188743;81;21511;-70
2021/06/06 05:09:35;;;;;;;29.00;15.08;;;;;;;17.38;70.27;99250.28;2188848;81;21448;-72
2021/06/06 05:12:35;;;;;;;26.48;14.98;;;;;;;17.52;70.03;99249.14;2188790;81;21020;-72
2021/06/06 05:15:36;;;;;;;26.80;15.65;;;;;;;17.65;69.72;99253.77;2188789;81;20989;-69
2021/06/06 05:18:36;;;;;;;27.50;16.12;;;;;;;17.81;69.70;99245.36;2188988;81;20972;-70
2021/06/06 05:21:37;;;;;;;28.60;15.32;;;;;;;17.96;69.93;99249.41;2189005;81;21031;-70
2021/06/06 05:24:37;;;;;;;26.00;14.83;;;;;;;18.18;69.56;99248.40;2188815;81;20996;-71
2021/06/06 05:27:38;;;;;;;25.48;13.80;;;;;;;18.33;68.90;99249.38;2188795;81;21025;-75
2021/06/06 05:30:38;;;;;;;25.00;13.35;;;;;;;18.49;68.28;99252.39;2188694;81;20937;-75
2021/06/06 05:33:39;;;;;;;27.00;12.78;;;;;;;18.67;68.39;99252.58;2188832;81;21467;-73
2021/06/06 05:36:39;;;;;;;23.42;12.25;;;;;;;18.86;67.14;99253.61;2188814;81;21058;-69
2021/06/06 05:39:40;;;;;;;23.90;12.37;;;;;;;19.08;67.06;99255.71;2188872;81;21032;-73
2021/06/06 05:42:40;;;;;;;22.80;12.05;;;;;;;19.36;66.67;99254.07;2188733;81;20992;-67
2021/06/06 05:45:41;;;;;;;23.18;11.48;;;;;;;19.45;65.54;99261.70;2188588;81;20989;-75
2021/06/06 05:48:42;;;;;;;23.75;11.83;;;;;;;19.61;66.16;99266.45;2188645;81;20992;-72
2021/06/06 05:51:43;;;;;;;25.00;10.75;;;;;;;19.80;66.06;99260.33;2188897;81;20976;-67
2021/06/06 05:54:44;;;;;;;23.73;10.82;;;;;;;20.11;65.12;99254.28;2189013;81;20980;-70
2021/06/06 05:57:44;;;;;;;22.40;10.38;;;;;;;20.40;64.67;99256.87;2189049;81;21444;-69
2021/06/06 06:00:45;;;;;;;23.55;10.50;;;;;;;20.67;63.60;99251.22;2188920;81;21004;-71
2021/06/06 06:03:45;;;;;;;20.82;9.25;;;;;;;20.85;63.43;99247.78;2188841;81;21016;-70
2021/06/06 06:06:46;;;;;;;22.80;9.40;;;;;;;21.05;62.72;99258.66;2188537;81;21063;-69
2021/06/06 06:09:46;;;;;;;22.20;8.70;;;;;;;21.16;60.39;99256.29;2188940;81;21004;-66
2021/06/06 06:12:46;;;;;;;21.30;8.87;;;;;;;21.18;60.97;99250.80;2189059;81;21019;-72
2021/06/06 06:15:47;;;;;;;21.57;8.37;;;;;;;21.20;60.58;99253.64;2189169;81;21083;-70
2021/06/06 06:18:47;;;;;;;22.73;8.43;;;;;;;21.27;60.63;99253.87;2188867;81;21004;-68
2021/06/06 06:21:48;;;;;;;21.10;8.40;;;;;;;21.42;59.21;99254.17;2189052;81;20961;-68
2021/06/06 06:24:48;;;;;;;19.27;7.70;;;;;;;21.52;59.80;99255.46;2189074;81;21415;-71
2021/06/06 06:27:49;;;;;;;22.10;8.37;;;;;;;21.66;58.95;99252.75;2189006;81;20980;-72
2021/06/06 06:30:49;;;;;;;18.52;6.60;;;;;;;21.93;57.80;99260.63;2188937;81;21024;-70
2021/06/06 06:33:50;;;;;;;18.33;6.53;;;;;;;22.13;58.44;99259.09;2188838;81;20992;-72
2021/06/06 06:36:51;;;;;;;17.52;6.40;;;;;;;22.09;53.96;99259.06;2189025;81;20976;-72
2021/06/06 06:39:51;;;;;;;19.87;6.67;;;;;;;22.03;55.19;99251.69;2189155;81;20961;-66
2021/06/06 06:42:54;;;;;;;19.97;7.23;;;;;;;22.12;55.84;99250.26;2188982;81;21013;-69
2021/06/06 06:45:54;;;;;;;19.05;6.78;;;;;;;22.28;55.34;99249.52;2117713;83;21498;-67
2021/06/06 06:48:55;;;;;;;17.47;6.53;;;;;;;22.39;53.45;99255.60;2143992;83;20991;-64
2021/06/06 06:51:55;;;;;;;18.80;6.53;;;;;;;22.68;54.72;99251.72;2144132;83;20988;-63
2021/06/06 06:54:56;;;;;;;17.00;5.77;;;;;;;22.84;54.15;99254.44;2143991;83;20999;-69
2021/06/06 06:57:56;;;;;;;14.97;5.93;;;;;;;22.84;52.49;99257.11;2144193;83;21014;-66
2021/06/06 07:00:57;;;;;;;17.97;6.23;;;;;;;22.88;53.49;99252.29;2143604;83;21415;-64
2021/06/06 07:03:58;;;;;;;16.90;5.57;;;;;;;22.97;51.42;99248.14;2135258;83;21052;-64
2021/06/06 07:06:59;;;;;;;17.75;5.45;;;;;;;23.08;52.86;99244.31;2127620;84;21051;-65
2021/06/06 07:09:59;;;;;;;14.80;5.57;;;;;;;23.27;52.30;99245.05;2127790;83;21458;-64
2021/06/06 07:13:00;;;;;;;15.13;5.50;;;;;;;23.26;49.48;99247.37;2127890;83;20969;-64
2021/06/06 07:16:00;;;;;;;16.67;5.30;;;;;;;23.26;50.68;99250.91;2127756;84;20976;-66
2021/06/06 07:19:01;;;;;;;16.37;5.30;;;;;;;23.32;50.71;99249.41;2127617;84;21569;-69
2021/06/06 07:22:01;;;;;;;14.97;5.40;;;;;;;23.32;49.54;99245.40;2127882;84;20988;-68
2021/06/06 07:25:02;;;;;;;15.93;5.87;;;;;;;23.33;49.60;99245.71;2127997;84;20948;-63
2021/06/06 07:28:02;;;;;;;17.00;5.97;;;;;;;23.37;49.24;99240.88;2127893;84;21032;-69
2021/06/06 07:31:03;;;;;;;14.93;5.50;;;;;;;23.40;49.79;99240.54;2127745;84;21008;-64
2021/06/06 07:34:03;;;;;;;16.77;5.20;;;;;;;23.57;50.56;99234.70;2127869;84;20988;-70
2021/06/06 07:37:04;;;;;;;16.67;5.87;;;;;;;23.97;49.19;99241.06;2127860;83;20976;-76
2021/06/06 07:40:04;;;;;;;16.87;5.40;;;;;;;23.85;47.68;99248.06;2127921;84;21040;-74
2021/06/06 07:43:05;;;;;;;15.90;5.03;;;;;;;23.78;48.91;99241.72;2127868;84;20973;-75
2021/06/06 07:46:05;;;;;;;15.60;4.90;;;;;;;24.01;47.32;99235.18;2127523;84;21460;-64
2021/06/06 07:49:06;;;;;;;14.73;4.80;;;;;;;24.29;47.23;99233.94;2128126;84;21012;-67
2021/06/06 07:52:06;;;;;;;13.47;4.93;;;;;;;24.24;44.63;99237.14;2127950;84;20988;-64
2021/06/06 07:55:07;;;;;;;15.03;4.63;;;;;;;24.07;44.78;99247.58;2127638;84;21083;-67
2021/06/06 07:58:07;;;;;;;17.37;4.80;;;;;;;23.85;46.36;99245.91;2127813;84;21024;-68
2021/06/06 08:01:07;;;;;;;12.97;4.53;;;;;;;23.47;46.48;99253.08;2127937;84;21511;-67
2021/06/06 08:04:08;;;;;;;14.00;4.70;;;;;;;23.05;45.14;99254.00;2127389;83;21051;-68
2021/06/06 08:07:09;;;;;;;15.13;5.10;;;;;;;23.41;46.24;99255.61;2127372;84;20988;-70
2021/06/06 08:10:10;;;;;;;14.20;5.33;;;;;;;23.29;46.06;99251.91;2127839;84;21530;-71
2021/06/06 08:13:10;;;;;;;15.47;5.03;;;;;;;23.44;46.91;99249.91;2127818;84;21470;-66
2021/06/06 08:16:11;;;;;;;15.17;5.47;;;;;;;23.64;45.67;99243.22;2127904;84;21559;-68
2021/06/06 08:19:11;;;;;;;12.07;4.77;;;;;;;24.09;48.77;99248.23;2127544;83;21947;-70
2021/06/06 08:22:12;;;;;;;19.93;4.83;;;;;;;24.26;45.58;99247.69;2127847;84;20945;-71
2021/06/06 08:25:12;;;;;;;13.20;4.20;;;;;;;24.47;44.71;99251.16;2127849;84;21459;-70
2021/06/06 08:28:13;;;;;;;13.33;4.07;;;;;;;24.68;43.59;99254.59;2127726;83;21015;-71
2021/06/06 08:31:13;;;;;;;11.67;4.00;;;;;;;24.71;42.33;99254.25;2127725;84;20995;-73
2021/06/06 08:34:14;;;;;;;13.23;4.00;;;;;;;24.90;42.60;99249.80;2127738;83;20996;-71
2021/06/06 08:37:14;;;;;;;9.77;3.87;;;;;;;25.18;42.65;99254.66;2127839;84;20956;-75
2021/06/06 08:40:15;;;;;;;11.73;3.47;;;;;;;25.45;42.70;99258.39;2127807;84;20991;-71
2021/06/06 08:43:15;;;;;;;17.03;4.23;;;;;;;25.14;39.20;99256.54;2127988;84;20984;-69
2021/06/06 08:46:16;;;;;;;11.18;4.28;;;;;;;25.02;40.99;99254.77;2127592;84;21015;-70
2021/06/06 08:49:18;;;;;;;13.30;4.10;;;;;;;25.05;40.64;99248.53;2106020;84;21537;-68
2021/06/06 08:52:20;;;;;;;11.93;3.70;;;;;;;24.98;42.07;99250.25;2127426;84;21051;-71
2021/06/06 08:55:20;;;;;;;10.67;3.90;;;;;;;25.38;39.14;99252.38;2127960;84;20992;-69
2021/06/06 08:58:24;;;;;;;18.12;4.03;;;;;;;25.02;40.38;99246.72;2127683;84;21045;-75
2021/06/06 09:01:25;;;;;;;;;;;;;;;24.69;40.14;99246.89;2130436;84;21004;-75
2021/06/06 09:04:27;;;;;;;11.35;3.80;;;;;;;24.74;39.42;99232.47;2105673;84;20484;-74
2021/06/06 09:07:28;;;;;;;13.17;3.67;;;;;;;25.14;38.98;99238.61;2127869;84;20993;-74
2021/06/06 09:10:28;;;;;;;14.90;4.17;;;;;;;25.36;39.29;99241.51;2128026;84;20988;-74
2021/06/06 09:13:30;;;;;;;11.50;4.03;;;;;;;24.89;39.21;99238.73;2127883;84;20977;-74
2021/06/06 09:16:31;;;;;;;13.32;4.08;;;;;;;24.98;38.45;99235.49;2127540;84;21084;-73
2021/06/06 09:19:31;;;;;;;13.53;3.83;;;;;;;25.41;39.59;99237.27;2128100;84;20989;-74
2021/06/06 09:22:32;;;;;;;13.57;4.10;;;;;;;25.84;38.95;99241.27;2127984;84;20988;-76
2021/06/06 09:25:36;;;;;;;9.95;3.65;;;;;;;26.23;37.34;99233.50;2127871;84;21520;-75
2021/06/06 09:28:35;;;;;;;12.70;4.08;;;;;;;25.87;37.02;99231.49;2161941;82;20990;-75
2021/06/06 09:31:36;;;;;;;13.40;4.50;;;;;;;25.15;40.16;99230.86;2172470;82;21444;-75
2021/06/06 09:34:36;;;;;;;17.73;3.97;;;;;;;25.44;40.69;99228.00;2172645;81;21475;-75
2021/06/06 09:37:36;;;;;;;12.93;4.10;;;;;;;25.91;37.82;99230.12;2172409;82;20977;-73
2021/06/06 09:40:37;;;;;;;14.37;4.33;;;;;;;26.08;37.81;99225.45;2172424;81;21016;-75
2021/06/06 09:43:38;;;;;;;14.28;4.45;;;;;;;25.94;38.41;99229.75;2172061;82;21645;-70
2021/06/06 09:46:39;;;;;;;15.97;4.37;;;;;;;25.11;37.84;99224.17;2172006;81;21017;-67
2021/06/06 09:49:39;;;;;;;15.07;4.20;;;;;;;24.40;38.83;99229.55;2172400;81;21016;-69
2021/06/06 09:52:41;;;;;;;13.17;4.30;;;;;;;24.37;39.71;99219.18;2172488;81;21008;-64
2021/06/06 09:55:42;;;;;;;12.75;4.33;;;;;;;24.37;39.71;99219.18;2172201;82;21535;-66
2021/06/06 09:58:43;;;;;;;11.87;3.97;;;;;;;24.93;38.56;99224.48;2172405;82;20945;-66
2021/06/06 10:01:45;;;;;;;10.95;3.95;;;;;;;24.87;37.43;99209.92;2172352;81;20980;-66
2021/06/06 10:04:45;;;;;;;9.93;3.37;;;;;;;25.64;37.63;99217.59;2172150;81;21008;-66
2021/06/06 10:07:46;;;;;;;9.33;3.53;;;;;;;26.19;37.13;99208.01;2172476;81;20993;-64
2021/06/06 10:10:47;;;;;;;13.70;3.90;;;;;;;26.60;36.04;99205.66;2172349;81;20981;-65
2021/06/06 10:13:47;;;;;;;9.25;3.25;;;;;;;27.08;37.53;99201.66;2172204;82;21622;-69
2021/06/06 10:16:50;;;;;;;7.47;3.50;;;;;;;27.52;35.97;99203.34;2172402;82;21015;-71
2021/06/06 10:19:50;;;;;;;12.82;3.70;;;;;;;27.76;33.86;99208.00;2172055;82;21068;-70
2021/06/06 10:22:51;;;;;;;12.43;3.80;;;;;;;27.76;33.86;99205.30;2172344;81;21508;-70
2021/06/06 10:25:52;;;;;;;9.43;3.17;;;;;;;27.97;34.70;99199.85;2172478;82;20968;-66
2021/06/06 10:28:52;;;;;;;11.97;3.47;;;;;;;28.37;34.28;99201.13;2172311;81;21472;-68
2021/06/06 10:31:53;;;;;;;10.68;3.25;;;;;;;28.47;31.91;99202.94;2172157;82;21521;-68
2021/06/06 10:34:54;;;;;;;9.43;3.40;;;;;;;28.33;31.04;99198.84;2172449;82;20981;-72
2021/06/06 10:37:54;;;;;;;7.37;3.10;;;;;;;28.41;33.96;99195.66;2172265;82;20985;-69
2021/06/06 10:40:55;;;;;;;11.83;3.55;;;;;;;28.52;30.79;99197.78;2171856;82;21025;-71
2021/06/06 10:43:56;;;;;;;13.53;4.00;;;;;;;28.72;33.21;99195.19;2172452;81;21012;-70
2021/06/06 10:46:57;;;;;;;15.50;3.33;;;;;;;29.44;33.37;99192.00;2171780;82;21001;-69
2021/06/06 10:49:58;;;;;;;9.87;3.00;;;;;;;29.94;32.59;99191.58;2172434;81;21009;-71
2021/06/06 10:52:58;;;;;;;;;;;;;;;29.90;29.08;99193.89;2174892;81;20973;-68
2021/06/06 10:55:59;;;;;;;14.27;3.67;;;;;;;29.80;29.95;99188.05;2172461;81;20112;-70
2021/06/06 10:59:03;;;;;;;11.03;3.30;;;;;;;29.17;29.56;99190.09;2172155;81;21503;-71
2021/06/06 11:02:02;;;;;;;8.38;3.05;;;;;;;29.08;32.45;99191.33;2106433;84;20993;-69
2021/06/06 11:05:02;;;;;;;9.90;3.13;;;;;;;29.57;29.10;99180.36;2127572;83;21040;-70
2021/06/06 11:08:03;;;;;;;10.10;3.13;;;;;;;29.79;30.80;99186.38;2127869;84;21550;-71
2021/06/06 11:11:03;;;;;;;10.07;3.30;;;;;;;30.04;31.16;99182.00;2127893;84;21488;-72
2021/06/06 11:14:04;;;;;;;12.87;3.43;;;;;;;30.57;29.68;99181.52;2127917;83;21502;-72
2021/06/06 11:17:04;;;;;;;9.40;2.90;;;;;;;30.81;28.35;99177.23;2127760;84;21032;-72
2021/06/06 11:20:04;;;;;;;10.13;3.30;;;;;;;30.14;27.14;99180.21;2127742;84;20993;-70
2021/06/06 11:23:05;;;;;;;10.33;3.20;;;;;;;28.96;29.12;99186.20;2127916;84;21518;-70
2021/06/06 11:26:05;;;;;;;7.37;3.00;;;;;;;28.47;30.45;99178.66;2127849;83;21471;-69
2021/06/06 11:29:06;;;;;;;7.70;3.10;;;;;;;28.62;29.74;99177.17;2127779;84;20981;-71
2021/06/06 11:32:08;;;;;;;6.23;3.03;;;;;;;28.80;29.07;99173.92;2127528;84;21093;-72
2021/06/06 11:35:08;;;;;;;11.48;3.37;;;;;;;29.13;27.93;99177.20;2127472;84;21070;-70
2021/06/06 11:38:09;;;;;;;10.10;3.20;;;;;;;29.25;27.23;99174.75;2127796;84;20972;-66
2021/06/06 11:41:09;;;;;;;9.37;2.93;;;;;;;29.29;28.00;99167.90;2127626;84;21000;-66
2021/06/06 11:44:10;;;;;;;8.70;3.10;;;;;;;29.30;28.82;99160.94;2127834;84;20969;-66
2021/06/06 11:47:12;;;;;;;8.00;2.80;;;;;;;29.68;26.79;99159.45;2127705;84;21475;-66
2021/06/06 11:50:13;;;;;;;11.03;3.20;;;;;;;30.02;28.02;99157.03;2127711;84;20969;-69
2021/06/06 11:53:14;;;;;;;14.83;3.42;;;;;;;30.40;27.79;99156.78;2127872;84;21020;-69
2021/06/06 11:56:14;;;;;;;8.85;3.17;;;;;;;30.64;27.61;99153.89;2127717;84;21016;-65
2021/06/06 11:59:15;;;;;;;8.78;3.20;;;;;;;30.90;28.32;99146.16;2127528;84;21574;-69
2021/06/06 12:02:15;;;;;;;7.83;2.70;;;;;;;30.88;26.70;99147.42;2127882;84;21519;-66
2021/06/06 12:05:16;;;;;;;11.37;3.20;;;;;;;30.66;28.57;99140.99;2132725;83;21569;-71
2021/06/06 12:08:16;;;;;;;7.42;2.87;;;;;;;31.00;27.55;99138.06;2137106;83;21004;-67
2021/06/06 12:11:19;;;;;;;10.50;2.80;;;;;;;30.86;27.53;99133.25;2137127;83;21276;-68
2021/06/06 12:14:19;;;;;;;7.12;2.55;;;;;;;30.65;26.43;99131.74;2182039;81;21001;-71
2021/06/06 12:17:20;;;;;;;7.80;2.87;;;;;;;30.62;26.01;99129.47;2182320;81;21009;-70
2021/06/06 12:20:20;;;;;;;8.33;2.95;;;;;;;30.10;24.30;99124.89;2182201;82;21300;-67
2021/06/06 12:23:21;;;;;;;9.47;3.00;;;;;;;30.16;28.06;99125.37;2182463;82;21037;-67
2021/06/06 12:26:21;;;;;;;9.03;2.77;;;;;;;30.84;26.90;99117.23;2182212;82;21059;-69
2021/06/06 12:29:22;;;;;;;10.00;2.67;;;;;;;31.16;26.48;99115.05;2181879;82;21020;-66
2021/06/06 12:32:22;;;;;;;9.43;2.83;;;;;;;30.79;24.64;99116.22;2182553;82;20976;-67
2021/06/06 12:35:23;;;;;;;13.10;3.17;;;;;;;30.61;24.38;99113.73;2182444;82;20941;-68
2021/06/06 12:38:23;;;;;;;12.10;2.90;;;;;;;30.27;24.49;99115.77;2182418;82;21264;-66
2021/06/06 12:41:23;;;;;;;5.77;2.77;;;;;;;29.70;26.47;99115.50;2182426;82;20989;-66
2021/06/06 12:44:24;;;;;;;10.60;3.33;;;;;;;29.70;26.47;99115.50;2182411;82;21991;-66
2021/06/06 12:47:24;;;;;;;8.10;2.53;;;;;;;30.15;26.39;99109.36;2182283;82;20973;-66
2021/06/06 12:50:25;;;;;;;8.60;3.03;;;;;;;30.48;25.55;99104.35;2182443;82;21455;-66
2021/06/06 12:53:25;;;;;;;12.23;3.20;;;;;;;30.48;24.33;99117.34;2182214;82;21583;-67
2021/06/06 12:56:26;;;;;;;10.00;2.83;;;;;;;30.48;24.33;99117.34;2182436;82;21494;-66
2021/06/06 12:59:27;;;;;;;6.67;2.80;;;;;;;29.49;25.28;99112.52;2182279;82;21162;-65
2021/06/06 13:02:28;;;;;;;10.03;3.37;;;;;;;28.74;27.01;99112.15;2182160;82;21004;-65
2021/06/06 13:05:28;;;;;;;7.97;3.10;;;;;;;28.07;26.45;99115.94;2176992;82;21033;-65
2021/06/06 13:08:34;;;;;;;9.97;3.07;;;;;;;27.71;29.38;99105.36;2172481;81;20977;-70
2021/06/06 13:11:31;;;;;;;12.60;3.50;;;;;;;28.10;29.99;99107.97;2106468;84;21514;-70
2021/06/06 13:14:37;;;;;;;7.57;3.30;;;;;;;28.03;28.71;99114.70;2127999;84;21032;-70
2021/06/06 13:17:34;;;;;;;10.65;2.90;;;;;;;27.76;28.89;99110.47;2161950;82;21425;-67
2021/06/06 13:20:34;;;;;;;8.80;2.90;;;;;;;28.28;27.27;99106.08;2172407;81;21024;-70
2021/06/06 13:23:35;;;;;;;10.67;3.43;;;;;;;28.39;26.80;99109.55;2172604;81;21013;-68
2021/06/06 13:26:35;;;;;;;7.90;3.10;;;;;;;28.63;28.04;99107.35;2172569;82;20977;-70
2021/06/06 13:29:36;;;;;;;11.70;3.27;;;;;;;29.53;28.95;99091.61;2171914;82;21021;-70
2021/06/06 13:32:37;;;;;;;14.00;3.00;;;;;;;30.48;27.07;99103.81;2172437;82;21020;-70
2021/06/06 13:35:38;;;;;;;;;;;;;;;30.63;25.74;99090.02;2174675;82;21008;-66
2021/06/06 13:38:39;;;;;;;10.87;3.10;;;;;;;28.86;26.10;99092.13;2172303;81;20459;-66
2021/06/06 13:41:39;;;;;;;13.57;2.83;;;;;;;28.86;26.10;99092.13;2172481;81;20965;-65
2021/06/06 13:44:39;;;;;;;13.00;3.27;;;;;;;28.42;26.77;99097.00;2172405;81;20977;-69
2021/06/06 13:47:40;;;;;;;11.33;3.23;;;;;;;28.83;27.94;99101.98;2172400;81;21012;-65
2021/06/06 13:50:42;;;;;;;12.00;3.30;;;;;;;28.45;27.15;99103.34;2172617;81;20957;-66
2021/06/06 13:53:42;;;;;;;10.05;3.27;;;;;;;27.89;27.21;99105.67;2172121;81;21578;-66
2021/06/06 13:56:43;;;;;;;9.33;3.17;;;;;;;28.44;27.72;99101.66;2172273;82;21001;-66
2021/06/06 13:59:43;;;;;;;11.07;3.13;;;;;;;29.41;26.88;99095.17;2172347;81;21024;-65
2021/06/06 14:02:44;;;;;;;10.57;2.87;;;;;;;30.11;25.10;99089.20;2172514;81;20937;-65
2021/06/06 14:05:44;;;;;;;6.63;2.70;;;;;;;29.86;25.55;99100.73;2181154;81;20984;-66
2021/06/06 14:08:45;;;;;;;7.93;2.83;;;;;;;29.40;24.93;99101.63;2188922;81;21004;-66
2021/06/06 14:11:45;;;;;;;11.83;3.20;;;;;;;28.93;27.37;99097.54;2188941;81;20964;-64
2021/06/06 14:14:45;;;;;;;10.87;3.17;;;;;;;28.56;27.67;99105.97;2189182;81;21451;-66
2021/06/06 14:17:46;;;;;;;9.63;2.90;;;;;;;27.95;28.20;99110.25;2188557;81;21047;-66
2021/06/06 14:20:46;;;;;;;9.83;3.10;;;;;;;27.36;29.34;99111.55;2188914;81;21015;-66
2021/06/06 14:23:47;;;;;;;9.93;3.20;;;;;;;26.95;29.72;99109.02;2188937;81;20996;-66
2021/06/06 14:26:47;;;;;;;14.73;3.50;;;;;;;26.72;30.54;99100.28;2188911;81;20968;-65
2021/06/06 14:29:48;;;;;;;12.03;3.40;;;;;;;27.08;30.92;99112.34;2189004;81;21491;-66
2021/06/06 14:32:48;;;;;;;9.43;3.50;;;;;;;27.19;29.95;99113.66;2189025;81;21459;-70
2021/06/06 14:38:53;;;;;;;11.38;3.42;;;;;;;27.40;30.56;99116.86;2094768;83;21023;-68
2021/06/06 14:44:58;;;;;;;10.68;3.33;;;;;;;28.06;30.19;99105.36;2094617;83;21027;-70
2021/06/06 14:47:58;;;;;;;7.77;3.00;;;;;;;28.40;30.15;99103.63;2144249;83;20980;-68
2021/06/06 14:50:59;;;;;;;10.73;3.40;;;;;;;28.63;28.09;99107.35;2144149;83;20949;-67
2021/06/06 14:53:59;;;;;;;6.63;2.83;;;;;;;28.63;28.42;99101.45;2143726;83;21016;-68
2021/06/06 14:57:00;;;;;;;12.07;3.27;;;;;;;28.98;28.58;99095.06;2144097;83;20971;-69
2021/06/06 15:00:01;;;;;;;11.88;3.10;;;;;;;29.09;27.30;99098.47;2144017;83;20980;-69
2021/06/06 15:03:01;;;;;;;10.83;3.10;;;;;;;29.45;28.05;99103.16;2144035;83;20970;-69
2021/06/06 15:06:02;;;;;;;11.90;3.20;;;;;;;30.63;26.30;99099.48;2134969;83;20968;-70
2021/06/06 15:09:02;;;;;;;10.07;3.17;;;;;;;32.05;25.10;99095.33;2127903;84;20984;-70
2021/06/06 15:12:03;;;;;;;12.53;3.10;;;;;;;33.10;23.54;99088.33;2127698;84;21052;-70
2021/06/06 15:15:03;;;;;;;11.68;3.17;;;;;;;33.72;22.06;99103.36;2127483;83;20996;-70
2021/06/06 15:18:04;;;;;;;10.20;2.95;;;;;;;32.70;22.14;99109.33;2127750;84;21519;-69
2021/06/06 15:21:05;;;;;;;11.35;3.17;;;;;;;32.53;23.15;99088.79;2127629;83;21518;-70
2021/06/06 15:24:05;;;;;;;;;;;;;;;33.57;22.01;99096.52;2130106;84;20948;-70
2021/06/06 15:27:06;;;;;;;10.70;3.17;;;;;;;34.51;21.02;99087.86;2111137;84;20146;-70
2021/06/06 15:30:06;;;;;;;;;;;;;;;35.16;21.55;99083.83;2113506;84;20958;-71
2021/06/06 15:33:08;;;;;;;12.57;3.30;;;;;;;36.02;18.70;99080.40;2111076;84;20146;-69
2021/06/06 15:36:09;;;;;;;10.38;2.90;;;;;;;36.30;19.16;99078.58;2110935;84;21084;-69
2021/06/06 15:39:09;;;;;;;9.53;3.10;;;;;;;35.44;19.44;99086.72;2127215;83;21080;-66
2021/06/06 15:42:10;;;;;;;13.48;3.08;;;;;;;34.84;19.97;99087.13;2127321;84;21004;-68
2021/06/06 15:45:13;;;;;;;10.45;2.65;;;;;;;33.28;20.81;99084.73;2127191;84;20996;-66
2021/06/06 15:48:12;;;;;;;9.53;2.85;;;;;;;33.71;20.36;99093.03;2099441;84;21001;-67
2021/06/06 15:51:13;;;;;;;10.55;2.90;;;;;;;32.96;21.49;99082.31;2127260;84;21033;-68
2021/06/06 15:54:13;;;;;;;;;;;;;;;31.20;22.71;99083.77;2129734;84;20958;-66
2021/06/06 15:57:14;;;;;;;12.47;3.30;;;;;;;29.84;24.44;99093.34;2127492;84;20109;-67
2021/06/06 16:00:14;;;;;;;12.47;3.20;;;;;;;29.29;25.43;99089.05;2127369;84;21064;-68
2021/06/06 16:03:15;;;;;;;16.23;3.17;;;;;;;31.56;24.65;99076.75;2127030;84;21037;-67
2021/06/06 16:06:16;;;;;;;7.50;2.95;;;;;;;32.46;23.16;99073.95;2127231;83;21057;-68
2021/06/06 16:09:16;;;;;;;10.50;3.17;;;;;;;32.38;23.90;99067.48;2127401;84;21009;-66
2021/06/06 16:12:17;;;;;;;;;;;;;;;34.35;21.96;99063.61;2129933;84;21000;-66
2021/06/06 16:15:18;;;;;;;10.53;2.80;;;;;;;36.33;21.24;99065.77;2127724;84;20117;-70
2021/06/06 16:18:18;;;;;;;12.75;3.02;;;;;;;37.93;19.95;99071.37;2127250;83;21024;-69
2021/06/06 16:21:19;;;;;;;11.83;3.12;;;;;;;39.36;18.71;99065.53;2127125;84;21491;-69
2021/06/06 16:24:19;;;;;;;11.03;2.77;;;;;;;40.13;17.93;99064.73;2127174;83;21479;-70
2021/06/06 16:27:19;;;;;;;8.75;3.00;;;;;;;40.82;16.93;99058.52;2127172;84;20985;-69
2021/06/06 16:30:20;;;;;;;8.03;2.77;;;;;;;41.07;15.50;99056.66;2127177;84;21020;-69
2021/06/06 16:33:22;;;;;;;8.18;2.67;;;;;;;40.53;14.96;99062.02;2126802;84;21527;-69
2021/06/06 16:36:22;;;;;;;9.75;3.00;;;;;;;40.47;15.18;99059.88;2127210;83;21001;-70
2021/06/06 16:39:23;;;;;;;6.10;2.70;;;;;;;40.51;14.49;99060.92;2127354;84;21005;-70
2021/06/06 16:42:23;;;;;;;8.35;2.65;;;;;;;40.34;15.28;99059.94;2127265;84;20988;-70
2021/06/06 16:45:24;;;;;;;10.90;2.80;;;;;;;40.88;13.85;99060.91;2127270;84;20985;-70
2021/06/06 16:48:24;;;;;;;8.48;2.67;;;;;;;40.76;14.45;99063.23;2127131;83;20977;-70
2021/06/06 16:51:25;;;;;;;8.00;2.80;;;;;;;40.82;14.43;99052.45;2127268;83;20993;-69
2021/06/06 16:54:25;;;;;;;12.13;2.90;;;;;;;41.06;14.14;99054.45;2126977;84;21503;-70
2021/06/06 16:57:26;;;;;;;8.80;2.70;;;;;;;41.37;14.64;99052.80;2127213;84;21005;-67
2021/06/06 17:00:26;;;;;;;10.65;2.70;;;;;;;41.93;13.75;99056.02;2127136;84;21060;-69
2021/06/06 17:03:27;;;;;;;9.80;3.10;;;;;;;41.78;13.53;99058.39;2127329;84;20993;-70
2021/06/06 17:06:27;;;;;;;10.05;3.00;;;;;;;42.24;13.51;99061.38;2130631;83;21067;-70
2021/06/06 17:09:28;;;;;;;11.45;2.70;;;;;;;42.27;14.31;99063.27;2134278;83;21056;-70
2021/06/06 17:12:28;;;;;;;8.63;2.90;;;;;;;42.22;13.06;99058.66;2134540;83;21088;-68
2021/06/06 17:15:29;;;;;;;9.53;2.65;;;;;;;41.64;13.29;99058.28;2134408;83;20946;-71
2021/06/06 17:18:29;;;;;;;11.03;2.90;;;;;;;41.25;14.21;99057.84;2134271;83;21443;-71
2021/06/06 17:21:30;;;;;;;8.23;2.70;;;;;;;40.63;14.05;99057.00;2134223;83;21009;-71
2021/06/06 17:24:31;;;;;;;8.45;2.90;;;;;;;39.77;13.92;99061.29;2134268;83;20996;-70
2021/06/06 17:27:31;;;;;;;8.50;2.67;;;;;;;38.36;14.92;99054.81;2134328;83;20992;-71
2021/06/06 17:30:35;;;;;;;8.90;2.55;;;;;;;37.74;15.68;99062.81;2134226;83;21036;-67
2021/06/06 17:33:35;;;;;;;8.58;3.00;;;;;;;36.50;16.36;99055.56;2134460;83;21088;-68
2021/06/06 17:36:36;;;;;;;9.23;2.90;;;;;;;34.73;17.84;99074.38;2134484;83;21483;-69
2021/06/06 17:39:36;;;;;;;9.63;2.90;;;;;;;33.10;19.00;99072.03;2134239;83;21016;-69